createdAt,value
2018-05-18T00:00:08.447Z,47.60
2018-05-18T00:00:45.815Z,47.50
2018-05-18T00:01:23.322Z,47.40
2018-05-18T00:02:01.484Z,47.60
2018-05-18T00:02:39.100Z,47.40
2018-05-18T00:03:16.691Z,47.30
2018-05-18T00:03:54.240Z,47.40
2018-05-18T00:04:31.697Z,47.40
2018-05-18T00:05:09.206Z,47.40
2018-05-18T00:05:46.580Z,47.40
2018-05-18T00:06:24.132Z,47.40
2018-05-18T00:07:02.237Z,47.30
2018-05-18T00:07:40.347Z,47.30
2018-05-18T00:08:18.443Z,47.30
2018-05-18T00:08:56.018Z,47.30
2018-05-18T00:09:34.139Z,47.30
2018-05-18T00:10:12.205Z,47.20
2018-05-18T00:10:49.833Z,47.20
2018-05-18T00:11:27.364Z,47.30
2018-05-18T00:12:04.955Z,47.20
2018-05-18T00:12:42.310Z,47.20
2018-05-18T00:13:19.702Z,47.20
2018-05-18T00:13:57.047Z,47.30
2018-05-18T00:14:35.182Z,47.10
2018-05-18T00:15:13.366Z,47.20
2018-05-18T00:15:50.934Z,47.20
2018-05-18T00:16:28.392Z,47.10
2018-05-18T00:17:05.892Z,47.20
2018-05-18T00:17:43.515Z,47.10
2018-05-18T00:18:21.084Z,47.10
2018-05-18T00:18:58.598Z,47.10
2018-05-18T00:19:36.098Z,47.10
2018-05-18T00:20:13.631Z,47.10
2018-05-18T00:20:51.887Z,47.10
2018-05-18T00:21:30.006Z,47.10
2018-05-18T00:22:07.605Z,47.10
2018-05-18T00:22:45.151Z,47.10
2018-05-18T00:23:22.590Z,47.10
2018-05-18T00:24:00.135Z,47.00
2018-05-18T00:24:37.725Z,47.10
2018-05-18T00:25:15.287Z,47.10
2018-05-18T00:25:52.907Z,47.00
2018-05-18T00:26:30.436Z,47.00
2018-05-18T00:27:07.800Z,46.90
2018-05-18T00:27:45.159Z,46.90
2018-05-18T00:28:22.682Z,47.00
2018-05-18T00:29:00.281Z,46.90
2018-05-18T00:29:38.653Z,46.90
2018-05-18T00:30:16.023Z,46.90
2018-05-18T00:30:53.564Z,47.00
2018-05-18T00:31:31.122Z,46.90
2018-05-18T00:32:08.816Z,47.00
2018-05-18T00:32:46.453Z,46.90
2018-05-18T00:33:24.765Z,46.90
2018-05-18T00:34:02.163Z,46.80
2018-05-18T00:34:39.759Z,46.80
2018-05-18T00:35:17.321Z,46.80
2018-05-18T00:35:54.916Z,46.90
2018-05-18T00:36:33.243Z,46.90
2018-05-18T00:37:10.821Z,46.90
2018-05-18T00:37:48.394Z,46.90
2018-05-18T00:38:25.959Z,46.80
2018-05-18T00:39:03.482Z,46.90
2018-05-18T00:39:40.966Z,46.90
2018-05-18T00:40:19.270Z,47.00
2018-05-18T00:40:57.351Z,46.90
2018-05-18T00:41:35.478Z,46.90
2018-05-18T00:42:13.665Z,46.80
2018-05-18T00:42:51.240Z,46.70
2018-05-18T00:43:28.601Z,46.80
2018-05-18T00:44:06.908Z,46.80
2018-05-18T00:44:45.188Z,46.80
2018-05-18T00:45:23.291Z,46.80
2018-05-18T00:46:00.668Z,46.70
2018-05-18T00:46:38.986Z,46.80
2018-05-18T00:47:17.261Z,46.70
2018-05-18T00:47:54.783Z,46.70
2018-05-18T00:48:32.353Z,46.70
2018-05-18T00:49:09.727Z,46.80
2018-05-18T00:49:47.094Z,46.80
2018-05-18T00:50:24.711Z,46.70
2018-05-18T00:51:02.302Z,46.70
2018-05-18T00:51:39.827Z,46.70
2018-05-18T00:52:17.177Z,46.70
2018-05-18T00:52:54.562Z,46.80
2018-05-18T00:53:32.896Z,47.20
2018-05-18T00:54:10.340Z,46.70
2018-05-18T00:54:47.696Z,46.70
2018-05-18T00:55:25.311Z,46.60
2018-05-18T00:56:03.648Z,46.70
2018-05-18T00:56:41.098Z,46.70
2018-05-18T00:57:18.699Z,46.60
2018-05-18T00:57:56.051Z,46.50
2018-05-18T00:58:33.671Z,46.50
2018-05-18T00:59:11.230Z,46.50
2018-05-18T00:59:48.614Z,46.50
2018-05-18T01:00:26.180Z,46.50
2018-05-18T01:01:03.747Z,46.50
2018-05-18T01:01:41.329Z,46.50
2018-05-18T01:02:18.952Z,46.50
2018-05-18T01:02:57.224Z,46.50
2018-05-18T01:03:34.773Z,46.50
2018-05-18T01:04:12.144Z,46.50
2018-05-18T01:04:49.535Z,46.50
2018-05-18T01:05:27.136Z,46.50
2018-05-18T01:06:05.527Z,46.50
2018-05-18T01:06:43.108Z,46.50
2018-05-18T01:07:20.664Z,46.50
2018-05-18T01:07:58.305Z,46.40
2018-05-18T01:08:35.839Z,46.50
2018-05-18T01:09:13.963Z,46.40
2018-05-18T01:09:52.255Z,46.40
2018-05-18T01:10:30.642Z,46.30
2018-05-18T01:11:08.257Z,46.30
2018-05-18T01:11:45.820Z,46.20
2018-05-18T01:12:23.391Z,46.20
2018-05-18T01:13:00.948Z,46.30
2018-05-18T01:13:38.430Z,46.30
2018-05-18T01:14:16.556Z,46.30
2018-05-18T01:14:54.151Z,46.30
2018-05-18T01:15:31.697Z,46.30
2018-05-18T01:16:09.281Z,46.30
2018-05-18T01:16:46.649Z,46.40
2018-05-18T01:17:24.184Z,46.40
2018-05-18T01:18:01.713Z,46.40
2018-05-18T01:18:39.815Z,46.30
2018-05-18T01:19:17.183Z,46.30
2018-05-18T01:19:55.471Z,46.30
2018-05-18T01:20:33.825Z,46.40
2018-05-18T01:21:11.354Z,46.40
2018-05-18T01:21:48.747Z,46.30
2018-05-18T01:22:26.183Z,46.30
2018-05-18T01:23:03.724Z,46.30
2018-05-18T01:23:42.017Z,46.30
2018-05-18T01:24:19.559Z,46.20
2018-05-18T01:24:57.014Z,46.30
2018-05-18T01:25:34.468Z,46.40
2018-05-18T01:26:12.007Z,46.40
2018-05-18T01:26:49.405Z,46.30
2018-05-18T01:27:26.894Z,46.30
2018-05-18T01:28:04.275Z,46.30
2018-05-18T01:28:41.781Z,46.30
2018-05-18T01:29:19.920Z,46.30
2018-05-18T01:29:57.706Z,46.30
2018-05-18T01:30:35.250Z,46.40
2018-05-18T01:31:13.666Z,46.40
2018-05-18T01:31:51.912Z,46.40
2018-05-18T01:32:30.107Z,46.30
2018-05-18T01:33:07.706Z,46.30
2018-05-18T01:33:45.175Z,46.30
2018-05-18T01:34:23.463Z,47.20
2018-05-18T01:35:01.113Z,46.40
2018-05-18T01:35:38.675Z,46.40
2018-05-18T01:36:16.179Z,46.40
2018-05-18T01:36:53.567Z,46.40
2018-05-18T01:37:31.021Z,46.40
2018-05-18T01:38:08.562Z,46.40
2018-05-18T01:38:46.085Z,46.30
2018-05-18T01:39:24.604Z,46.40
2018-05-18T01:40:02.088Z,46.30
2018-05-18T01:40:40.325Z,46.40
2018-05-18T01:41:17.895Z,46.40
2018-05-18T01:41:55.486Z,46.30
2018-05-18T01:42:33.046Z,46.30
2018-05-18T01:43:10.630Z,46.40
2018-05-18T01:43:48.090Z,46.30
2018-05-18T01:44:25.895Z,46.30
2018-05-18T01:45:03.372Z,46.30
2018-05-18T01:45:41.170Z,46.30
2018-05-18T01:46:18.775Z,46.30
2018-05-18T01:46:57.017Z,46.50
2018-05-18T01:47:35.318Z,46.50
2018-05-18T01:48:13.479Z,46.50
2018-05-18T01:48:51.044Z,46.50
2018-05-18T01:49:28.528Z,46.60
2018-05-18T01:50:05.997Z,46.60
2018-05-18T01:50:43.555Z,46.60
2018-05-18T01:51:22.006Z,46.60
2018-05-18T01:52:00.140Z,46.60
2018-05-18T01:52:37.837Z,46.60
2018-05-18T01:53:15.298Z,46.70
2018-05-18T01:53:52.813Z,46.60
2018-05-18T01:54:30.358Z,46.50
2018-05-18T01:55:08.041Z,46.50
2018-05-18T01:55:45.547Z,46.50
2018-05-18T01:56:23.201Z,46.60
2018-05-18T01:57:00.813Z,46.50
2018-05-18T01:57:38.377Z,47.30
2018-05-18T01:58:16.777Z,46.50
2018-05-18T01:58:54.982Z,46.60
2018-05-18T01:59:32.562Z,46.50
2018-05-18T02:00:10.145Z,46.40
2018-05-18T02:00:47.697Z,46.40
2018-05-18T02:01:26.019Z,46.40
2018-05-18T02:02:03.498Z,46.40
2018-05-18T02:02:41.073Z,46.40
2018-05-18T02:03:18.595Z,46.40
2018-05-18T02:03:56.113Z,46.40
2018-05-18T02:04:33.693Z,46.50
2018-05-18T02:05:12.017Z,46.50
2018-05-18T02:05:49.595Z,46.40
2018-05-18T02:06:27.152Z,46.50
2018-05-18T02:07:05.254Z,46.50
2018-05-18T02:07:42.829Z,46.50
2018-05-18T02:08:20.950Z,46.40
2018-05-18T02:08:58.307Z,46.30
2018-05-18T02:09:35.902Z,46.40
2018-05-18T02:10:13.481Z,46.40
2018-05-18T02:10:50.993Z,46.30
2018-05-18T02:11:28.639Z,46.20
2018-05-18T02:12:06.832Z,46.30
2018-05-18T02:12:45.170Z,46.30
2018-05-18T02:13:22.756Z,46.30
2018-05-18T02:14:00.219Z,46.30
2018-05-18T02:14:37.784Z,46.40
2018-05-18T02:15:15.242Z,46.30
2018-05-18T02:15:52.688Z,46.30
2018-05-18T02:16:30.090Z,46.30
2018-05-18T02:17:08.396Z,46.40
2018-05-18T02:17:46.684Z,46.50
2018-05-18T02:18:24.297Z,46.50
2018-05-18T02:19:01.869Z,46.50
2018-05-18T02:19:39.472Z,46.50
2018-05-18T02:20:17.383Z,46.50
2018-05-18T02:20:54.951Z,46.50
2018-05-18T02:21:32.515Z,46.50
2018-05-18T02:22:10.069Z,46.50
2018-05-18T02:22:47.844Z,46.40
2018-05-18T02:23:25.952Z,46.40
2018-05-18T02:24:03.548Z,46.30
2018-05-18T02:24:41.628Z,46.40
2018-05-18T02:25:19.231Z,46.30
2018-05-18T02:25:56.745Z,46.30
2018-05-18T02:26:34.279Z,46.20
2018-05-18T02:27:11.868Z,46.30
2018-05-18T02:27:49.441Z,46.30
2018-05-18T02:28:27.008Z,46.30
2018-05-18T02:29:05.232Z,46.40
2018-05-18T02:29:42.781Z,46.40
2018-05-18T02:30:21.077Z,46.40
2018-05-18T02:30:58.641Z,46.30
2018-05-18T02:31:36.139Z,46.30
2018-05-18T02:32:13.777Z,46.30
2018-05-18T02:32:51.383Z,46.30
2018-05-18T02:33:28.883Z,46.40
2018-05-18T02:34:06.228Z,46.50
2018-05-18T02:34:43.848Z,46.50
2018-05-18T02:35:21.432Z,46.40
2018-05-18T02:35:59.048Z,46.40
2018-05-18T02:36:36.603Z,46.40
2018-05-18T02:37:14.155Z,46.40
2018-05-18T02:37:51.821Z,46.50
2018-05-18T02:38:29.322Z,46.50
2018-05-18T02:39:06.896Z,46.40
2018-05-18T02:39:44.265Z,46.40
2018-05-18T02:40:21.911Z,46.50
2018-05-18T02:40:59.568Z,46.00
2018-05-18T02:41:37.144Z,46.50
2018-05-18T02:42:14.740Z,46.50
2018-05-18T02:42:52.216Z,46.60
2018-05-18T02:43:29.682Z,46.60
2018-05-18T02:44:07.480Z,46.80
2018-05-18T02:44:45.820Z,46.60
2018-05-18T02:45:23.167Z,46.50
2018-05-18T02:46:00.731Z,46.60
2018-05-18T02:46:38.303Z,46.60
2018-05-18T02:47:16.687Z,46.60
2018-05-18T02:47:54.128Z,46.50
2018-05-18T02:48:31.691Z,46.60
2018-05-18T02:49:09.264Z,46.70
2018-05-18T02:49:46.615Z,46.60
2018-05-18T02:50:24.213Z,46.50
2018-05-18T02:51:01.644Z,46.60
2018-05-18T02:51:39.024Z,46.60
2018-05-18T02:52:16.615Z,46.60
2018-05-18T02:52:54.152Z,46.60
2018-05-18T02:53:31.673Z,46.50
2018-05-18T02:54:09.200Z,46.50
2018-05-18T02:54:47.516Z,46.60
2018-05-18T02:55:25.063Z,46.50
2018-05-18T02:56:03.244Z,46.60
2018-05-18T02:56:40.895Z,46.60
2018-05-18T02:57:18.438Z,46.50
2018-05-18T02:57:56.010Z,46.60
2018-05-18T02:58:33.601Z,46.60
2018-05-18T02:59:11.638Z,46.70
2018-05-18T02:59:49.751Z,46.80
2018-05-18T03:00:27.946Z,46.70
2018-05-18T03:01:05.558Z,46.60
2018-05-18T03:01:43.124Z,46.60
2018-05-18T03:02:20.676Z,46.60
2018-05-18T03:02:58.049Z,46.60
2018-05-18T03:03:35.545Z,46.40
2018-05-18T03:04:13.144Z,46.50
2018-05-18T03:04:50.739Z,46.50
2018-05-18T03:05:28.119Z,46.50
2018-05-18T03:06:05.679Z,46.40
2018-05-18T03:06:43.751Z,46.50
2018-05-18T03:07:21.397Z,46.50
2018-05-18T03:07:58.892Z,46.40
2018-05-18T03:08:36.425Z,46.50
2018-05-18T03:09:14.023Z,46.70
2018-05-18T03:09:51.534Z,46.80
2018-05-18T03:10:29.086Z,46.80
2018-05-18T03:11:07.358Z,46.80
2018-05-18T03:11:45.650Z,46.80
2018-05-18T03:12:23.040Z,46.70
2018-05-18T03:13:00.439Z,46.70
2018-05-18T03:13:38.815Z,47.20
2018-05-18T03:14:17.096Z,46.60
2018-05-18T03:14:54.647Z,46.60
2018-05-18T03:15:32.138Z,46.60
2018-05-18T03:16:09.724Z,46.60
2018-05-18T03:16:47.237Z,46.40
2018-05-18T03:17:24.677Z,46.30
2018-05-18T03:18:02.446Z,46.30
2018-05-18T03:18:39.874Z,46.70
2018-05-18T03:19:17.443Z,47.00
2018-05-18T03:19:55.040Z,47.40
2018-05-18T03:20:32.590Z,48.00
2018-05-18T03:21:09.939Z,48.10
2018-05-18T03:21:47.305Z,48.20
2018-05-18T03:22:24.838Z,48.90
2018-05-18T03:23:02.461Z,48.30
2018-05-18T03:23:40.146Z,48.40
2018-05-18T03:24:17.587Z,48.40
2018-05-18T03:24:55.863Z,49.70
2018-05-18T03:25:34.157Z,49.80
2018-05-18T03:26:12.484Z,49.20
2018-05-18T03:26:50.655Z,49.40
2018-05-18T03:27:28.789Z,49.40
2018-05-18T03:28:06.352Z,49.40
2018-05-18T03:28:43.970Z,49.00
2018-05-18T03:29:21.571Z,49.10
2018-05-18T03:29:59.090Z,49.10
2018-05-18T03:30:36.631Z,49.20
2018-05-18T03:31:14.054Z,49.30
2018-05-18T03:31:51.580Z,49.30
2018-05-18T03:32:28.919Z,49.40
2018-05-18T03:33:06.291Z,49.20
2018-05-18T03:33:43.859Z,49.20
2018-05-18T03:34:21.428Z,49.10
2018-05-18T03:34:59.018Z,49.30
2018-05-18T03:35:36.575Z,49.10
2018-05-18T03:36:14.144Z,49.40
2018-05-18T03:36:51.533Z,49.10
2018-05-18T03:37:29.044Z,49.10
2018-05-18T03:38:06.636Z,49.10
2018-05-18T03:38:43.953Z,49.20
2018-05-18T03:39:21.475Z,49.10
2018-05-18T03:39:59.069Z,49.10
2018-05-18T03:40:36.598Z,49.20
2018-05-18T03:41:14.025Z,49.10
2018-05-18T03:41:51.611Z,48.90
2018-05-18T03:42:29.015Z,48.90
2018-05-18T03:43:07.313Z,49.10
2018-05-18T03:43:44.854Z,49.00
2018-05-18T03:44:22.278Z,49.00
2018-05-18T03:44:59.921Z,48.90
2018-05-18T03:45:38.199Z,49.60
2018-05-18T03:46:15.787Z,48.60
2018-05-18T03:46:53.156Z,48.80
2018-05-18T03:47:31.450Z,48.80
2018-05-18T03:48:09.084Z,48.80
2018-05-18T03:48:46.473Z,48.90
2018-05-18T03:49:24.626Z,48.80
2018-05-18T03:50:02.813Z,48.80
2018-05-18T03:50:40.155Z,48.80
2018-05-18T03:51:17.484Z,49.00
2018-05-18T03:51:54.955Z,48.90
2018-05-18T03:52:32.527Z,49.00
2018-05-18T03:53:10.165Z,48.80
2018-05-18T03:53:47.700Z,48.70
2018-05-18T03:54:25.139Z,48.60
2018-05-18T03:55:02.510Z,48.60
2018-05-18T03:55:39.891Z,48.60
2018-05-18T03:56:17.259Z,48.50
2018-05-18T03:56:54.598Z,48.40
2018-05-18T03:57:32.184Z,48.40
2018-05-18T03:58:09.756Z,48.50
2018-05-18T03:58:47.318Z,48.50
2018-05-18T03:59:24.942Z,48.50
2018-05-18T04:00:02.488Z,48.40
2018-05-18T04:00:40.013Z,48.40
2018-05-18T04:01:17.409Z,48.40
2018-05-18T04:01:54.731Z,48.40
2018-05-18T04:02:32.259Z,48.30
2018-05-18T04:03:10.560Z,48.40
2018-05-18T04:03:47.972Z,48.40
2018-05-18T04:04:25.551Z,48.40
2018-05-18T04:05:02.939Z,48.20
2018-05-18T04:05:41.108Z,48.20
2018-05-18T04:06:18.606Z,48.20
2018-05-18T04:06:56.143Z,48.10
2018-05-18T04:07:33.525Z,48.10
2018-05-18T04:08:11.044Z,48.10
2018-05-18T04:08:48.607Z,48.10
2018-05-18T04:09:26.178Z,48.00
2018-05-18T04:10:03.730Z,48.00
2018-05-18T04:10:41.360Z,48.10
2018-05-18T04:11:18.735Z,48.10
2018-05-18T04:11:56.243Z,48.10
2018-05-18T04:12:33.761Z,48.10
2018-05-18T04:13:11.886Z,48.00
2018-05-18T04:13:49.230Z,48.00
2018-05-18T04:14:26.559Z,48.00
2018-05-18T04:15:04.925Z,48.00
2018-05-18T04:15:43.239Z,47.90
2018-05-18T04:16:20.806Z,47.90
2018-05-18T04:16:58.452Z,47.90
2018-05-18T04:17:36.094Z,47.90
2018-05-18T04:18:13.478Z,47.80
2018-05-18T04:18:51.051Z,47.80
2018-05-18T04:19:28.609Z,47.80
2018-05-18T04:20:06.141Z,47.80
2018-05-18T04:20:43.656Z,47.70
2018-05-18T04:21:21.127Z,47.70
2018-05-18T04:21:58.635Z,47.80
2018-05-18T04:22:36.216Z,47.70
2018-05-18T04:23:13.870Z,47.70
2018-05-18T04:23:51.434Z,47.80
2018-05-18T04:24:28.753Z,47.80
2018-05-18T04:25:06.293Z,47.80
2018-05-18T04:25:43.963Z,47.80
2018-05-18T04:26:21.385Z,47.60
2018-05-18T04:26:58.672Z,47.60
2018-05-18T04:27:36.270Z,47.60
2018-05-18T04:28:14.554Z,47.70
2018-05-18T04:28:52.087Z,47.70
2018-05-18T04:29:29.470Z,47.70
2018-05-18T04:30:06.867Z,47.70
2018-05-18T04:30:44.982Z,47.60
2018-05-18T04:31:22.362Z,47.60
2018-05-18T04:31:59.901Z,47.50
2018-05-18T04:32:37.427Z,47.50
2018-05-18T04:33:14.774Z,47.50
2018-05-18T04:33:52.372Z,47.40
2018-05-18T04:34:30.000Z,47.40
2018-05-18T04:35:07.510Z,47.40
2018-05-18T04:35:44.999Z,47.40
2018-05-18T04:36:22.596Z,47.50
2018-05-18T04:37:00.186Z,47.40
2018-05-18T04:37:37.760Z,48.20
2018-05-18T04:38:15.333Z,47.50
2018-05-18T04:38:53.445Z,47.40
2018-05-18T04:39:31.005Z,47.40
2018-05-18T04:40:09.300Z,47.40
2018-05-18T04:40:46.701Z,47.30
2018-05-18T04:41:24.265Z,47.30
2018-05-18T04:42:01.848Z,47.30
2018-05-18T04:42:39.455Z,47.40
2018-05-18T04:43:17.095Z,47.50
2018-05-18T04:43:54.590Z,47.30
2018-05-18T04:44:32.198Z,47.30
2018-05-18T04:45:09.779Z,47.20
2018-05-18T04:45:47.339Z,47.30
2018-05-18T04:46:24.938Z,47.30
2018-05-18T04:47:02.539Z,47.20
2018-05-18T04:47:40.095Z,47.20
2018-05-18T04:48:17.639Z,47.10
2018-05-18T04:48:55.099Z,47.10
2018-05-18T04:49:32.621Z,47.10
2018-05-18T04:50:10.168Z,47.20
2018-05-18T04:50:47.470Z,47.00
2018-05-18T04:51:24.852Z,47.00
2018-05-18T04:52:02.440Z,46.90
2018-05-18T04:52:40.034Z,46.90
2018-05-18T04:53:18.098Z,46.90
2018-05-18T04:53:55.634Z,46.90
2018-05-18T04:54:33.299Z,46.90
2018-05-18T04:55:10.793Z,46.90
2018-05-18T04:55:49.141Z,46.80
2018-05-18T04:56:26.722Z,46.80
2018-05-18T04:57:04.089Z,46.80
2018-05-18T04:57:42.394Z,46.80
2018-05-18T04:58:19.992Z,46.80
2018-05-18T04:58:57.616Z,46.80
2018-05-18T04:59:35.689Z,46.90
2018-05-18T05:00:14.063Z,46.80
2018-05-18T05:00:51.630Z,46.80
2018-05-18T05:01:29.930Z,46.80
2018-05-18T05:02:07.423Z,46.80
2018-05-18T05:02:45.835Z,46.80
2018-05-18T05:03:23.271Z,46.80
2018-05-18T05:04:00.857Z,46.80
2018-05-18T05:04:38.330Z,46.80
2018-05-18T05:05:15.700Z,46.70
2018-05-18T05:05:53.032Z,46.70
2018-05-18T05:06:30.803Z,46.70
2018-05-18T05:07:08.365Z,46.70
2018-05-18T05:07:45.902Z,46.70
2018-05-18T05:08:23.330Z,46.60
2018-05-18T05:09:01.616Z,46.60
2018-05-18T05:09:39.005Z,46.50
2018-05-18T05:10:16.447Z,46.50
2018-05-18T05:10:54.124Z,46.50
2018-05-18T05:11:31.678Z,46.50
2018-05-18T05:12:09.220Z,46.40
2018-05-18T05:12:47.520Z,46.30
2018-05-18T05:13:25.615Z,46.40
2018-05-18T05:14:03.205Z,46.30
2018-05-18T05:14:40.730Z,46.30
2018-05-18T05:15:18.889Z,46.40
2018-05-18T05:15:56.451Z,46.30
2018-05-18T05:16:33.809Z,46.30
2018-05-18T05:17:11.913Z,46.40
2018-05-18T05:17:50.031Z,46.40
2018-05-18T05:18:27.684Z,46.30
2018-05-18T05:19:05.185Z,46.40
2018-05-18T05:19:42.767Z,46.30
2018-05-18T05:20:20.367Z,46.40
2018-05-18T05:20:57.920Z,46.30
2018-05-18T05:21:36.255Z,46.30
2018-05-18T05:22:14.507Z,46.30
2018-05-18T05:22:52.063Z,46.30
2018-05-18T05:23:29.451Z,46.30
2018-05-18T05:24:07.050Z,46.30
2018-05-18T05:24:44.618Z,46.30
2018-05-18T05:25:21.983Z,46.30
2018-05-18T05:25:59.355Z,46.40
2018-05-18T05:26:36.743Z,46.30
2018-05-18T05:27:14.122Z,46.30
2018-05-18T05:27:52.238Z,46.20
2018-05-18T05:28:30.370Z,46.30
2018-05-18T05:29:07.850Z,46.20
2018-05-18T05:29:46.199Z,46.30
2018-05-18T05:30:23.784Z,46.30
2018-05-18T05:31:01.395Z,46.40
2018-05-18T05:31:38.750Z,46.20
2018-05-18T05:32:17.192Z,47.00
2018-05-18T05:32:54.559Z,46.20
2018-05-18T05:33:32.090Z,46.10
2018-05-18T05:34:09.455Z,46.30
2018-05-18T05:34:47.003Z,46.30
2018-05-18T05:35:24.546Z,46.20
2018-05-18T05:36:02.145Z,46.10
2018-05-18T05:36:39.807Z,46.30
2018-05-18T05:37:17.287Z,46.30
2018-05-18T05:37:54.871Z,46.30
2018-05-18T05:38:32.462Z,46.20
2018-05-18T05:39:10.032Z,46.20
2018-05-18T05:39:47.612Z,46.20
2018-05-18T05:40:25.203Z,46.10
2018-05-18T05:41:02.799Z,45.90
2018-05-18T05:41:40.350Z,45.80
2018-05-18T05:42:17.900Z,45.80
2018-05-18T05:42:55.237Z,45.80
2018-05-18T05:43:32.787Z,45.80
2018-05-18T05:44:10.386Z,45.80
2018-05-18T05:44:47.942Z,45.80
2018-05-18T05:45:26.248Z,45.70
2018-05-18T05:46:03.856Z,45.80
2018-05-18T05:46:41.428Z,45.80
2018-05-18T05:47:18.874Z,45.80
2018-05-18T05:47:56.194Z,45.80
2018-05-18T05:48:33.708Z,45.80
2018-05-18T05:49:11.230Z,45.80
2018-05-18T05:49:48.805Z,45.70
2018-05-18T05:50:26.299Z,45.80
2018-05-18T05:51:03.910Z,45.90
2018-05-18T05:51:42.255Z,45.90
2018-05-18T05:52:19.620Z,45.80
2018-05-18T05:52:57.766Z,45.80
2018-05-18T05:53:35.321Z,45.80
2018-05-18T05:54:12.963Z,45.80
2018-05-18T05:54:50.486Z,45.80
2018-05-18T05:55:28.030Z,45.90
2018-05-18T05:56:05.558Z,45.90
2018-05-18T05:56:43.772Z,45.90
2018-05-18T05:57:21.257Z,45.80
2018-05-18T05:57:58.767Z,45.70
2018-05-18T05:58:36.390Z,45.80
2018-05-18T05:59:13.746Z,45.80
2018-05-18T05:59:51.288Z,45.80
2018-05-18T06:00:28.827Z,45.80
2018-05-18T06:01:06.197Z,45.70
2018-05-18T06:01:43.586Z,45.70
2018-05-18T06:02:20.940Z,45.70
2018-05-18T06:02:58.463Z,45.70
2018-05-18T06:03:36.002Z,45.60
2018-05-18T06:04:13.353Z,45.70
2018-05-18T06:04:50.726Z,45.70
2018-05-18T06:05:28.290Z,45.80
2018-05-18T06:06:06.529Z,45.80
2018-05-18T06:06:44.635Z,45.80
2018-05-18T06:07:22.247Z,45.80
2018-05-18T06:07:59.762Z,45.80
2018-05-18T06:08:37.340Z,45.80
2018-05-18T06:09:14.904Z,45.70
2018-05-18T06:09:52.299Z,45.60
2018-05-18T06:10:30.727Z,45.70
2018-05-18T06:11:09.019Z,45.90
2018-05-18T06:11:47.318Z,45.90
2018-05-18T06:12:25.643Z,45.80
2018-05-18T06:13:03.770Z,45.70
2018-05-18T06:13:42.112Z,45.70
2018-05-18T06:14:19.467Z,45.70
2018-05-18T06:14:57.068Z,45.70
2018-05-18T06:15:34.697Z,45.50
2018-05-18T06:16:12.245Z,45.50
2018-05-18T06:16:49.825Z,45.40
2018-05-18T06:17:27.299Z,45.50
2018-05-18T06:18:04.927Z,45.60
2018-05-18T06:18:43.082Z,45.40
2018-05-18T06:19:20.520Z,45.40
2018-05-18T06:19:57.901Z,45.40
2018-05-18T06:20:35.475Z,45.40
2018-05-18T06:21:12.980Z,45.50
2018-05-18T06:21:50.630Z,45.60
2018-05-18T06:22:28.424Z,45.60
2018-05-18T06:23:06.027Z,45.50
2018-05-18T06:23:44.368Z,46.10
2018-05-18T06:24:22.217Z,45.30
2018-05-18T06:24:59.882Z,45.30
2018-05-18T06:25:37.467Z,45.30
2018-05-18T06:26:15.103Z,45.30
2018-05-18T06:26:52.651Z,45.30
2018-05-18T06:27:30.417Z,45.30
2018-05-18T06:28:07.842Z,45.30
2018-05-18T06:28:45.403Z,45.30
2018-05-18T06:29:22.936Z,45.40
2018-05-18T06:30:00.484Z,45.20
2018-05-18T06:30:38.042Z,45.30
2018-05-18T06:31:15.511Z,45.20
2018-05-18T06:31:53.003Z,45.20
2018-05-18T06:32:31.106Z,45.10
2018-05-18T06:33:08.674Z,45.10
2018-05-18T06:33:46.038Z,45.00
2018-05-18T06:34:24.135Z,45.10
2018-05-18T06:35:01.771Z,45.00
2018-05-18T06:35:39.328Z,45.10
2018-05-18T06:36:16.892Z,45.20
2018-05-18T06:36:55.196Z,45.40
2018-05-18T06:37:33.381Z,45.30
2018-05-18T06:38:10.678Z,45.30
2018-05-18T06:38:48.226Z,45.30
2018-05-18T06:39:25.726Z,45.40
2018-05-18T06:40:03.209Z,46.10
2018-05-18T06:40:40.799Z,45.20
2018-05-18T06:41:19.052Z,45.30
2018-05-18T06:41:57.156Z,45.30
2018-05-18T06:42:34.716Z,45.20
2018-05-18T06:43:12.243Z,45.20
2018-05-18T06:43:49.811Z,45.10
2018-05-18T06:44:27.418Z,45.10
2018-05-18T06:45:05.006Z,44.90
2018-05-18T06:45:42.576Z,44.90
2018-05-18T06:46:20.127Z,44.80
2018-05-18T06:46:57.426Z,45.00
2018-05-18T06:47:35.547Z,45.10
2018-05-18T06:48:13.080Z,45.00
2018-05-18T06:48:50.451Z,45.10
2018-05-18T06:49:28.043Z,45.10
2018-05-18T06:50:05.411Z,45.20
2018-05-18T06:50:43.506Z,45.00
2018-05-18T06:51:21.136Z,45.00
2018-05-18T06:51:58.659Z,45.00
2018-05-18T06:52:36.109Z,45.10
2018-05-18T06:53:13.762Z,45.10
2018-05-18T06:53:51.298Z,45.00
2018-05-18T06:54:29.603Z,44.90
2018-05-18T06:55:07.087Z,44.80
2018-05-18T06:55:44.580Z,44.70
2018-05-18T06:56:22.958Z,44.90
2018-05-18T06:57:00.346Z,44.80
2018-05-18T06:57:37.923Z,44.70
2018-05-18T06:58:16.015Z,44.70
2018-05-18T06:58:54.121Z,44.70
2018-05-18T06:59:31.586Z,44.70
2018-05-18T07:00:08.966Z,44.70
2018-05-18T07:00:46.431Z,44.80
2018-05-18T07:01:23.997Z,44.70
2018-05-18T07:02:02.123Z,44.90
2018-05-18T07:02:39.760Z,44.80
2018-05-18T07:03:17.300Z,44.80
2018-05-18T07:03:55.623Z,44.70
2018-05-18T07:04:33.133Z,44.70
2018-05-18T07:05:10.519Z,44.70
2018-05-18T07:05:48.058Z,44.70
2018-05-18T07:06:26.198Z,44.60
2018-05-18T07:07:03.524Z,44.50
2018-05-18T07:07:41.175Z,44.70
2018-05-18T07:08:18.538Z,44.70
2018-05-18T07:08:56.107Z,44.70
2018-05-18T07:09:34.420Z,44.70
2018-05-18T07:10:11.994Z,44.70
2018-05-18T07:10:49.588Z,44.50
2018-05-18T07:11:27.177Z,44.50
2018-05-18T07:12:04.749Z,44.30
2018-05-18T07:12:42.238Z,44.30
2018-05-18T07:13:19.774Z,44.30
2018-05-18T07:13:57.143Z,44.30
2018-05-18T07:14:35.280Z,44.30
2018-05-18T07:15:12.679Z,44.30
2018-05-18T07:15:50.238Z,44.30
2018-05-18T07:16:27.614Z,44.30
2018-05-18T07:17:05.132Z,44.30
2018-05-18T07:17:42.685Z,44.30
2018-05-18T07:18:20.233Z,44.30
2018-05-18T07:18:58.549Z,44.40
2018-05-18T07:19:36.138Z,44.30
2018-05-18T07:20:13.470Z,44.30
2018-05-18T07:20:51.093Z,44.20
2018-05-18T07:21:29.185Z,44.20
2018-05-18T07:22:06.764Z,44.10
2018-05-18T07:22:44.265Z,44.10
2018-05-18T07:23:21.814Z,44.10
2018-05-18T07:23:59.348Z,44.20
2018-05-18T07:24:36.963Z,44.10
2018-05-18T07:25:14.444Z,44.20
2018-05-18T07:25:52.124Z,45.00
2018-05-18T07:26:29.626Z,44.10
2018-05-18T07:27:07.317Z,44.00
2018-05-18T07:27:44.821Z,44.10
2018-05-18T07:28:22.364Z,44.00
2018-05-18T07:28:59.743Z,43.90
2018-05-18T07:29:37.310Z,43.90
2018-05-18T07:30:14.883Z,43.90
2018-05-18T07:30:52.272Z,44.10
2018-05-18T07:31:29.601Z,43.90
2018-05-18T07:32:07.159Z,43.90
2018-05-18T07:32:44.650Z,43.90
2018-05-18T07:33:22.177Z,44.70
2018-05-18T07:33:59.789Z,43.90
2018-05-18T07:34:37.379Z,43.90
2018-05-18T07:35:14.939Z,43.90
2018-05-18T07:35:52.552Z,43.90
2018-05-18T07:36:30.130Z,43.90
2018-05-18T07:37:08.328Z,43.80
2018-05-18T07:37:45.905Z,43.80
2018-05-18T07:38:23.399Z,43.80
2018-05-18T07:39:00.979Z,43.80
2018-05-18T07:39:39.146Z,43.70
2018-05-18T07:40:16.736Z,43.70
2018-05-18T07:40:54.340Z,43.70
2018-05-18T07:41:31.860Z,43.60
2018-05-18T07:42:09.385Z,43.50
2018-05-18T07:42:47.555Z,43.40
2018-05-18T07:43:25.123Z,43.40
2018-05-18T07:44:03.238Z,43.50
2018-05-18T07:44:40.795Z,43.40
2018-05-18T07:45:19.119Z,43.40
2018-05-18T07:45:56.563Z,43.40
2018-05-18T07:46:34.690Z,43.40
2018-05-18T07:47:12.234Z,43.40
2018-05-18T07:47:49.622Z,43.20
2018-05-18T07:48:26.983Z,43.10
2018-05-18T07:49:04.323Z,43.20
2018-05-18T07:49:42.551Z,43.10
2018-05-18T07:50:20.076Z,43.10
2018-05-18T07:50:58.266Z,43.20
2018-05-18T07:51:35.862Z,43.20
2018-05-18T07:52:13.358Z,43.20
2018-05-18T07:52:50.696Z,43.20
2018-05-18T07:53:28.222Z,43.30
2018-05-18T07:54:05.787Z,43.30
2018-05-18T07:54:43.350Z,43.40
2018-05-18T07:55:20.704Z,43.30
2018-05-18T07:55:58.832Z,43.40
2018-05-18T07:56:36.180Z,43.30
2018-05-18T07:57:13.785Z,43.50
2018-05-18T07:57:51.394Z,43.50
2018-05-18T07:58:28.815Z,43.30
2018-05-18T07:59:06.209Z,43.50
2018-05-18T07:59:44.513Z,43.40
2018-05-18T08:00:22.612Z,43.40
2018-05-18T08:01:00.205Z,43.40
2018-05-18T08:01:37.771Z,43.50
2018-05-18T08:02:15.333Z,43.40
2018-05-18T08:02:52.993Z,43.40
2018-05-18T08:03:31.309Z,43.50
2018-05-18T08:04:09.455Z,43.50
2018-05-18T08:04:46.979Z,43.50